M I D A S
Marine Information and Data Acquisition System
Tripno 843 of the Zeeleeuw from 2005-01-28 07:43:36 to 2005-01-28 13:05:56
Back to CruiseResearch ActivitiesStationsMapUnderway DataData graphs

EquipmentUnitsComment
TimeDGPSUTC
LatitudeDGPSDM.mWGS84
LongitudeDGPSDM.mWGS84
HeadingGyrodeg 
SOGDGPSknotsSpeed over ground
COGDGPSdegCourse over ground
DepthEcho soundermeters200 kHz
Missing or incorrect values are displayed as -999
Navigation data collected by the RV Zeeleeuw from 2005-01-28 07:44:36 to 2005-01-28 13:14:41
                                                                                    Next 1000 lines
Time Latitude Longitude Heading SOG COG Depth
2005-01-28 07:44:46 51°13.595 2°56.093 112.5 1.2 287 6.5
2005-01-28 07:44:51 51°13.596 2°56.088 112.8 1.2 287 6.4
2005-01-28 07:44:56 51°13.598 2°56.083 113.3 1.2 287 -999
2005-01-28 07:45:02 51°13.6 2°56.077 114.1 2.5 292 -999
2005-01-28 07:45:06 51°13.601 2°56.072 114.7 2.8 294 -999
2005-01-28 07:45:11 51°13.603 2°56.066 114.9 2.8 293 -999
2005-01-28 07:45:16 51°13.604 2°56.061 114.9 2.8 293 -999
2005-01-28 07:45:22 51°13.606 2°56.056 114.9 2.5 294 -999
2005-01-28 07:45:26 51°13.606 2°56.054 115 2 296 -999
2005-01-28 07:45:31 51°13.607 2°56.052 115.1 1 296 -999
2005-01-28 07:45:36 51°13.607 2°56.052 115.3 1 296 -999
2005-01-28 07:45:41 51°13.606 2°56.054 116.7 0.5 114 -999
2005-01-28 07:45:46 51°13.605 2°56.056 119.4 0.8 118 -999
2005-01-28 07:45:51 51°13.604 2°56.06 122.9 1.7 122 -999
2005-01-28 07:45:56 51°13.602 2°56.064 126.9 2.1 123 -999
2005-01-28 07:46:01 51°13.6 2°56.069 130.8 2.7 129 -999
2005-01-28 07:46:07 51°13.596 2°56.075 133.3 3 127 -999
2005-01-28 07:46:11 51°13.594 2°56.08 134.5 3.1 130 8.7
2005-01-28 07:46:16 51°13.591 2°56.085 135 3.2 129 8.8
2005-01-28 07:46:21 51°13.588 2°56.09 135.2 3.2 129 8.8
2005-01-28 07:46:25 51°13.586 2°56.095 135.5 3.3 132 5.4
2005-01-28 07:46:31 51°13.582 2°56.101 136 3.3 132 8.4
2005-01-28 07:46:36 51°13.579 2°56.107 136.5 3.3 132 8.8
2005-01-28 07:46:40 51°13.576 2°56.111 137 3.3 136 8.8
2005-01-28 07:46:46 51°13.573 2°56.117 137.2 3.3 134 8.9
2005-01-28 07:46:50 51°13.57 2°56.122 137.3 3.3 135 9
2005-01-28 07:46:56 51°13.566 2°56.127 137.3 3.3 135 9.2
2005-01-28 07:47:01 51°13.563 2°56.132 137.3 3.3 135 8.7
2005-01-28 07:47:06 51°13.56 2°56.137 137.2 3.3 135 8.5
2005-01-28 07:47:10 51°13.557 2°56.141 137.1 3.3 135 8.8
2005-01-28 07:47:14 51°13.555 2°56.145 137 3.3 134 9.2
2005-01-28 07:47:20 51°13.551 2°56.152 136.4 3.2 134 9.4
2005-01-28 07:47:26 51°13.548 2°56.158 135.9 3.2 134 9.4
2005-01-28 07:47:30 51°13.546 2°56.162 135.1 3.2 132 9.5
2005-01-28 07:47:36 51°13.542 2°56.169 133.5 3.2 132 9.5
2005-01-28 07:47:41 51°13.54 2°56.176 129.2 3.4 127 9.3
2005-01-28 07:47:46 51°13.538 2°56.183 124.9 3.4 121 9.4
2005-01-28 07:47:51 51°13.536 2°56.19 119 3.4 121 9.3
2005-01-28 07:47:56 51°13.536 2°56.197 112.8 3.4 105 9.4
2005-01-28 07:48:00 51°13.535 2°56.204 106.6 3.4 100 9.5
2005-01-28 07:48:05 51°13.535 2°56.212 100.2 3.4 100 9.4
2005-01-28 07:48:11 51°13.536 2°56.22 94.2 3.4 100 9.2
2005-01-28 07:48:16 51°13.536 2°56.225 89 2.9 83 9.1
2005-01-28 07:48:21 51°13.537 2°56.229 86.2 2.3 83 8.9
2005-01-28 07:48:25 51°13.537 2°56.232 83 2.3 83 8.4
2005-01-28 07:48:31 51°13.537 2°56.234 78.6 2.3 83 8.2
2005-01-28 07:48:36 51°13.537 2°56.233 74.9 0.2 107 8.2
2005-01-28 07:48:41 51°13.537 2°56.232 72.7 0.3 237 8.3
2005-01-28 07:48:46 51°13.536 2°56.23 71.6 0.3 237 8.3
2005-01-28 07:48:50 51°13.535 2°56.227 71.2 1.5 249 -999
2005-01-28 07:48:56 51°13.534 2°56.223 71.1 1.6 250 -999
2005-01-28 07:49:00 51°13.534 2°56.22 71.4 1.4 251 -999
2005-01-28 07:49:06 51°13.534 2°56.22 72 1.4 251 -999
2005-01-28 07:49:11 51°13.534 2°56.221 71.2 0.2 75 -999
2005-01-28 07:49:16 51°13.535 2°56.223 66.1 0.8 46 -999
2005-01-28 07:49:22 51°13.537 2°56.225 61.8 1.3 54 -999
2005-01-28 07:49:26 51°13.538 2°56.228 55.8 1.5 49 -999
2005-01-28 07:49:31 51°13.54 2°56.229 49.8 1.6 45 -999
2005-01-28 07:49:36 51°13.54 2°56.23 46 0.9 42 -999
2005-01-28 07:49:42 51°13.541 2°56.23 42.8 0.3 24 -999
2005-01-28 07:49:46 51°13.54 2°56.229 39.5 0.1 346 -999
2005-01-28 07:49:51 51°13.539 2°56.228 37.2 0.8 220 -999
2005-01-28 07:49:56 51°13.538 2°56.226 35.7 0.8 220 -999
2005-01-28 07:50:02 51°13.537 2°56.225 34.7 1.1 213 -999
2005-01-28 07:50:06 51°13.536 2°56.224 34 1 215 -999
2005-01-28 07:50:12 51°13.536 2°56.224 33.3 0.3 228 -999
2005-01-28 07:50:16 51°13.537 2°56.225 31.1 0.1 1 -999
2005-01-28 07:50:21 51°13.539 2°56.225 26.4 0.9 13 -999
2005-01-28 07:50:25 51°13.54 2°56.226 21 1 19 -999
2005-01-28 07:50:31 51°13.541 2°56.226 15.8 0.9 2 -999
2005-01-28 07:50:36 51°13.542 2°56.226 12.3 0.9 2 5
2005-01-28 07:50:41 51°13.541 2°56.225 9.2 0.3 24 -999
2005-01-28 07:50:46 51°13.54 2°56.226 6 0.3 24 -999
2005-01-28 07:50:52 51°13.538 2°56.226 3.9 0.8 172 -999
2005-01-28 07:50:56 51°13.536 2°56.226 2.7 0.8 172 5.4
2005-01-28 07:51:01 51°13.534 2°56.226 1.8 1.7 175 5.8
2005-01-28 07:51:06 51°13.532 2°56.226 1.1 1.7 177 -999
2005-01-28 07:51:11 51°13.531 2°56.227 1 0.6 179 -999
2005-01-28 07:51:17 51°13.532 2°56.226 0.3 0.2 63 -999
2005-01-28 07:51:21 51°13.533 2°56.226 356.6 0.2 63 -999
2005-01-28 07:51:26 51°13.536 2°56.226 352.1 1.2 354 -999
2005-01-28 07:51:31 51°13.537 2°56.225 346.4 1.2 354 -999
2005-01-28 07:51:36 51°13.538 2°56.225 342.1 1.2 354 -999
2005-01-28 07:51:42 51°13.539 2°56.225 339.1 0.7 348 -999
2005-01-28 07:51:45 51°13.539 2°56.225 336 0.7 348 4.9
2005-01-28 07:51:51 51°13.538 2°56.226 334.1 0.3 125 -999
2005-01-28 07:51:56 51°13.537 2°56.228 332.4 0.3 125 5
2005-01-28 07:52:00 51°13.535 2°56.229 330.7 1.4 142 8.4
2005-01-28 07:52:06 51°13.533 2°56.232 330 1.7 143 6.7
2005-01-28 07:52:11 51°13.53 2°56.235 329.2 2.1 142 -999
2005-01-28 07:52:16 51°13.528 2°56.239 328.4 2.1 142 -999
2005-01-28 07:52:22 51°13.525 2°56.242 328 2.1 142 -999
2005-01-28 07:52:27 51°13.523 2°56.246 328.1 2.4 143 -999
2005-01-28 07:52:31 51°13.521 2°56.247 329.1 1.8 145 -999
2005-01-28 07:52:36 51°13.52 2°56.249 329.7 1.2 140 -999
2005-01-28 07:52:41 51°13.52 2°56.249 328.5 0.8 141 -999
2005-01-28 07:52:46 51°13.519 2°56.25 326.1 0.5 144 -999
2005-01-28 07:52:50 51°13.519 2°56.25 324 0.1 175 9.5
2005-01-28 07:52:56 51°13.52 2°56.249 322.2 0.1 175 9.5
2005-01-28 07:53:00 51°13.52 2°56.249 320.2 0.3 308 9.5
2005-01-28 07:53:05 51°13.52 2°56.248 318 0.3 308 9.4
2005-01-28 07:53:11 51°13.52 2°56.247 314.9 0.3 309 9.4
2005-01-28 07:53:16 51°13.521 2°56.247 313.2 0.3 306 9.4
2005-01-28 07:53:21 51°13.521 2°56.246 311.8 0.4 313 9.4
2005-01-28 07:53:26 51°13.521 2°56.246 310.7 0.4 313 9.4
2005-01-28 07:53:30 51°13.521 2°56.246 310 0.3 313 9.4
2005-01-28 07:53:36 51°13.522 2°56.245 309.8 0.3 316 9.4
2005-01-28 07:53:40 51°13.522 2°56.244 309.6 0.4 318 9.4
2005-01-28 07:53:46 51°13.523 2°56.243 309.5 0.4 318 9.4
2005-01-28 07:53:50 51°13.523 2°56.243 309.4 0.5 320 9.4
2005-01-28 07:53:56 51°13.524 2°56.242 309.3 0.5 320 9.2
2005-01-28 07:54:01 51°13.525 2°56.241 308.6 0.6 317 9.3
2005-01-28 07:54:06 51°13.525 2°56.24 308.1 0.6 317 9.3
2005-01-28 07:54:10 51°13.526 2°56.239 307.1 0.7 314 9.3
2005-01-28 07:54:14 51°13.527 2°56.238 306.1 0.6 310 9.2
2005-01-28 07:54:20 51°13.527 2°56.236 305.4 0.7 314 9.1
2005-01-28 07:54:26 51°13.528 2°56.235 304.7 0.6 310 9.1
2005-01-28 07:54:30 51°13.529 2°56.235 304.4 0.6 315 9.1
2005-01-28 07:54:36 51°13.529 2°56.233 304.1 0.6 315 9.2
2005-01-28 07:54:41 51°13.53 2°56.232 303.7 0.6 308 9.1
2005-01-28 07:54:46 51°13.53 2°56.231 303.1 0.6 307 9.1
2005-01-28 07:54:51 51°13.531 2°56.23 302.1 0.6 307 9.1
2005-01-28 07:54:56 51°13.531 2°56.228 300.8 0.7 299 9.1
2005-01-28 07:55:01 51°13.532 2°56.227 299.2 0.8 297 9.1
2005-01-28 07:55:05 51°13.532 2°56.226 298 0.8 297 9.1
2005-01-28 07:55:11 51°13.533 2°56.224 297.1 0.8 297 9.1
2005-01-28 07:55:16 51°13.534 2°56.222 296.5 0.8 296 9.2
2005-01-28 07:55:21 51°13.534 2°56.22 295.7 0.8 295 9.1
2005-01-28 07:55:25 51°13.535 2°56.219 295.2 0.8 295 9.2
2005-01-28 07:55:31 51°13.535 2°56.217 294.7 0.8 295 9.3
2005-01-28 07:55:36 51°13.535 2°56.216 294.6 0.8 294 9.3
2005-01-28 07:55:41 51°13.536 2°56.214 294.3 0.7 293 9.4
2005-01-28 07:55:46 51°13.536 2°56.213 294.2 0.7 293 9.4
2005-01-28 07:55:50 51°13.537 2°56.211 294.1 0.7 287 9.4
2005-01-28 07:55:56 51°13.537 2°56.21 294 0.7 284 9.4
2005-01-28 07:56:00 51°13.538 2°56.208 293.7 0.7 286 9.4
2005-01-28 07:56:05 51°13.538 2°56.207 293.4 0.7 283 9.5
2005-01-28 07:56:11 51°13.538 2°56.205 293 0.7 283 9.5
2005-01-28 07:56:16 51°13.538 2°56.204 292.5 0.8 278 9.4
2005-01-28 07:56:21 51°13.539 2°56.202 292.1 0.9 280 9.3
2005-01-28 07:56:26 51°13.539 2°56.199 291.7 1 279 9.4
2005-01-28 07:56:30 51°13.539 2°56.198 291.7 1 280 9.3
2005-01-28 07:56:36 51°13.539 2°56.195 291.7 1 280 9.3
2005-01-28 07:56:40 51°13.54 2°56.193 291.7 1 280 9.2
2005-01-28 07:56:46 51°13.54 2°56.19 291.7 1 280 9.3
2005-01-28 07:56:51 51°13.541 2°56.187 292 1.3 285 9.3
2005-01-28 07:56:56 51°13.541 2°56.185 292.5 1.2 285 9.3
2005-01-28 07:57:01 51°13.542 2°56.182 293.2 1.2 285 9.3
2005-01-28 07:57:06 51°13.542 2°56.179 293.8 1.2 285 9.2
2005-01-28 07:57:11 51°13.543 2°56.176 294.5 1.2 286 9.6
2005-01-28 07:57:16 51°13.543 2°56.174 294.9 1.3 286 9.5
2005-01-28 07:57:20 51°13.544 2°56.171 295.4 1.2 288 9.4
2005-01-28 07:57:26 51°13.545 2°56.167 296.1 1.4 288 9.4
2005-01-28 07:57:30 51°13.545 2°56.164 296.8 1.6 290 9.5
2005-01-28 07:57:36 51°13.546 2°56.16 297.4 1.6 290 9.4
2005-01-28 07:57:41 51°13.547 2°56.157 298.5 1.6 290 9.4
2005-01-28 07:57:45 51°13.548 2°56.154 299.5 1.8 290 9.4
2005-01-28 07:57:50 51°13.549 2°56.15 300.4 1.8 291 9.4
2005-01-28 07:57:56 51°13.55 2°56.146 301.2 1.9 293 9.3
2005-01-28 07:58:00 51°13.551 2°56.142 301.9 2 293 9.3
2005-01-28 07:58:06 51°13.553 2°56.138 302.4 2 295 9.3
2005-01-28 07:58:10 51°13.554 2°56.134 303.1 2.1 296 9.1
2005-01-28 07:58:16 51°13.555 2°56.129 303.8 2.1 297 8.8
2005-01-28 07:58:21 51°13.557 2°56.125 304.3 2.1 297 8.5
2005-01-28 07:58:26 51°13.558 2°56.121 304.7 2.1 297 8.7
2005-01-28 07:58:31 51°13.56 2°56.117 304.8 2.1 297 9.2
2005-01-28 07:58:36 51°13.561 2°56.112 304.8 2.3 298 9.4
2005-01-28 07:58:41 51°13.563 2°56.108 304.8 2.3 299 9.1
2005-01-28 07:58:46 51°13.564 2°56.103 305 2.3 299 9.1
2005-01-28 07:58:51 51°13.566 2°56.098 305.4 2.5 299 9
2005-01-28 07:58:56 51°13.568 2°56.092 305.9 2.5 299 9
2005-01-28 07:59:01 51°13.57 2°56.088 306.5 2.5 299 8.9
2005-01-28 07:59:06 51°13.572 2°56.082 306.8 2.5 299 9
2005-01-28 07:59:10 51°13.574 2°56.078 307 2.9 301 9.4
2005-01-28 07:59:16 51°13.576 2°56.071 307.3 2.9 302 8.8
2005-01-28 07:59:21 51°13.579 2°56.066 307.9 3 303 9.1
2005-01-28 07:59:25 51°13.581 2°56.061 308.4 3 303 9.3
2005-01-28 07:59:31 51°13.584 2°56.055 308.7 3 304 9.4
2005-01-28 07:59:36 51°13.586 2°56.049 309.1 3.1 304 9.5
2005-01-28 07:59:41 51°13.589 2°56.043 309.6 3.2 306 9.4
2005-01-28 07:59:46 51°13.591 2°56.037 310.2 3.2 306 9.4
2005-01-28 07:59:50 51°13.593 2°56.032 310.5 3.4 306 9.1
2005-01-28 07:59:56 51°13.597 2°56.025 310.5 3.5 306 9.2
2005-01-28 08:00:01 51°13.6 2°56.018 310.5 3.6 306 9.2
2005-01-28 08:00:06 51°13.603 2°56.012 310.6 3.7 306 9.3
2005-01-28 08:00:10 51°13.606 2°56.005 310.9 3.8 307 9.3
2005-01-28 08:00:16 51°13.61 2°55.997 311 3.8 307 9.4
2005-01-28 08:00:21 51°13.613 2°55.991 311.2 3.9 307 9.2
2005-01-28 08:00:26 51°13.616 2°55.984 311.2 3.9 307 9.3
2005-01-28 08:00:31 51°13.62 2°55.977 311.2 4.1 307 9.6
2005-01-28 08:00:36 51°13.623 2°55.969 311.2 4.2 308 9.5
2005-01-28 08:00:40 51°13.627 2°55.963 311.1 4.2 307 9.4
2005-01-28 08:00:46 51°13.631 2°55.954 310.9 4.2 307 9.4
2005-01-28 08:00:50 51°13.634 2°55.947 310.7 4.3 307 9.1
2005-01-28 08:00:56 51°13.638 2°55.938 310.5 4.3 306 9.3
2005-01-28 08:01:01 51°13.641 2°55.931 310 4.4 306 9.1
2005-01-28 08:01:06 51°13.645 2°55.923 309.8 4.4 306 9.2
2005-01-28 08:01:10 51°13.648 2°55.915 309.4 4.5 305 9.2
2005-01-28 08:01:16 51°13.652 2°55.906 309.1 4.5 304 9.4
2005-01-28 08:01:21 51°13.656 2°55.897 308.6 4.6 304 8.8
2005-01-28 08:01:26 51°13.66 2°55.889 308.4 4.6 304 9
2005-01-28 08:01:31 51°13.664 2°55.879 308.4 5 304 9.1
2005-01-28 08:01:36 51°13.668 2°55.869 308.6 5.3 304 9.2
2005-01-28 08:01:41 51°13.672 2°55.859 308.4 5.4 303 9.2
2005-01-28 08:01:46 51°13.676 2°55.849 308.2 5.5 303 9.1
2005-01-28 08:01:50 51°13.68 2°55.839 308.2 5.5 303 8.9
2005-01-28 08:01:56 51°13.685 2°55.828 308.4 5.7 304 8.9
2005-01-28 08:02:01 51°13.69 2°55.816 308.4 5.7 304 9.4
2005-01-28 08:02:06 51°13.694 2°55.806 309 5.8 304 10.6
2005-01-28 08:02:10 51°13.699 2°55.797 309.7 6 306 11.6
2005-01-28 08:02:16 51°13.705 2°55.784 310.9 6 306 12.3
2005-01-28 08:02:21 51°13.71 2°55.774 312 6.1 307 12.4
2005-01-28 08:02:26 51°13.715 2°55.764 312.7 6.1 307 12.4
2005-01-28 08:02:30 51°13.719 2°55.755 313.3 6.3 309 12
2005-01-28 08:02:36 51°13.727 2°55.741 313.8 6.3 310 10.3
2005-01-28 08:02:41 51°13.733 2°55.731 314.8 6.4 311 9.5
2005-01-28 08:02:46 51°13.739 2°55.721 316.1 6.4 311 9.5
2005-01-28 08:02:51 51°13.746 2°55.711 318.2 6.4 314 9.4
2005-01-28 08:02:56 51°13.752 2°55.702 319.9 6.4 314 9.3
2005-01-28 08:03:01 51°13.76 2°55.692 322.8 6.4 314 9.4
2005-01-28 08:03:06 51°13.767 2°55.684 324.8 6.6 323 9.4
2005-01-28 08:03:10 51°13.774 2°55.677 327.3 6.8 326 9.6
2005-01-28 08:03:16 51°13.783 2°55.668 329.5 6.8 326 9.5
2005-01-28 08:03:20 51°13.791 2°55.66 331.9 7 329 9.7
2005-01-28 08:03:26 51°13.8 2°55.651 333.5 7.1 329 10
2005-01-28 08:03:30 51°13.808 2°55.645 334.6 7.2 330 9.9
2005-01-28 08:03:36 51°13.82 2°55.635 335.2 7.4 331 10
2005-01-28 08:03:41 51°13.83 2°55.628 336.5 7.6 332 9.9
2005-01-28 08:03:46 51°13.841 2°55.62 339 7.8 335 9.9
2005-01-28 08:03:51 51°13.852 2°55.612 340.3 7.8 335 9.8
2005-01-28 08:03:56 51°13.862 2°55.604 340.3 8.3 335 9.7
2005-01-28 08:04:01 51°13.873 2°55.596 339.9 8.3 335 9.7
2005-01-28 08:04:06 51°13.884 2°55.588 339.9 8.6 335 9.7
2005-01-28 08:04:11 51°13.895 2°55.58 340 8.6 335 9.4
2005-01-28 08:04:16 51°13.905 2°55.572 339.7 8.6 335 9.5
2005-01-28 08:04:21 51°13.917 2°55.565 340.4 8.8 336 9.6
2005-01-28 08:04:26 51°13.928 2°55.557 341.8 8.9 338 9.5
2005-01-28 08:04:31 51°13.939 2°55.549 341.8 8.9 337 9
2005-01-28 08:04:36 51°13.95 2°55.541 341.1 8.9 337 9.3
2005-01-28 08:04:40 51°13.961 2°55.533 339.9 9 334 9.2
2005-01-28 08:04:46 51°13.973 2°55.524 339.8 9 335 9.3
2005-01-28 08:04:51 51°13.985 2°55.516 340.5 9.1 336 9.5
2005-01-28 08:04:56 51°13.998 2°55.507 341.1 9.1 337 9.6
2005-01-28 08:05:00 51°14.007 2°55.501 341 9.2 336 9.4
2005-01-28 08:05:06 51°14.02 2°55.492 340.5 9.2 336 9.3
2005-01-28 08:05:11 51°14.032 2°55.484 340.7 9.2 336 9.1
2005-01-28 08:05:16 51°14.045 2°55.474 340.6 9.2 335 8.9
2005-01-28 08:05:20 51°14.054 2°55.468 340.2 9.3 335 8.9
2005-01-28 08:05:26 51°14.067 2°55.459 340.2 9.3 335 8.9
2005-01-28 08:05:31 51°14.079 2°55.45 340.8 9.5 336 8.8
2005-01-28 08:05:36 51°14.092 2°55.441 340.6 9.5 335 8.7
2005-01-28 08:05:40 51°14.103 2°55.432 340 9.7 334 8.8
2005-01-28 08:05:46 51°14.116 2°55.422 339.7 9.7 334 8.7
2005-01-28 08:05:51 51°14.129 2°55.413 340 9.7 335 8.8
2005-01-28 08:05:56 51°14.141 2°55.404 340.2 9.8 335 9.5
2005-01-28 08:06:00 51°14.152 2°55.394 339.2 9.8 332 9.6
2005-01-28 08:06:06 51°14.165 2°55.382 337.2 9.8 332 9.4
2005-01-28 08:06:10 51°14.175 2°55.371 334.9 10 329 9.8
2005-01-28 08:06:16 51°14.188 2°55.358 333.2 10 329 10.1
2005-01-28 08:06:21 51°14.199 2°55.346 332 10 329 10
2005-01-28 08:06:26 51°14.21 2°55.332 330.3 10 329 9.8
2005-01-28 08:06:31 51°14.222 2°55.317 328.5 10.1 322 9.4
2005-01-28 08:06:36 51°14.232 2°55.303 326.8 10.1 320 9.3
2005-01-28 08:06:41 51°14.243 2°55.287 325.1 10.1 320 9.8
2005-01-28 08:06:46 51°14.253 2°55.272 323.7 10.2 317 9.8
2005-01-28 08:06:51 51°14.264 2°55.254 321.9 10.3 315 9.6
2005-01-28 08:06:56 51°14.273 2°55.239 320.3 10.3 315 9.7
2005-01-28 08:07:01 51°14.283 2°55.221 318.5 10.4 313 9.8
2005-01-28 08:07:06 51°14.292 2°55.204 316.4 10.4 313 9.6
2005-01-28 08:07:11 51°14.302 2°55.184 314.5 10.3 310 9.5
2005-01-28 08:07:16 51°14.311 2°55.167 313.9 10.3 310 9.3
2005-01-28 08:07:21 51°14.319 2°55.149 313 10.5 308 9.2
2005-01-28 08:07:26 51°14.328 2°55.13 312 10.5 308 9.4
2005-01-28 08:07:30 51°14.335 2°55.114 311.4 10.5 308 9.4
2005-01-28 08:07:36 51°14.347 2°55.088 310.9 10.8 306 9.1
2005-01-28 08:07:41 51°14.354 2°55.071 310.2 10.8 306 9.3
2005-01-28 08:07:46 51°14.363 2°55.05 309.5 11.1 304 9.5
2005-01-28 08:07:50 51°14.371 2°55.03 308.9 11.3 303 9.6
2005-01-28 08:07:56 51°14.381 2°55.005 308.4 11.3 302 9.5
2005-01-28 08:08:01 51°14.389 2°54.987 308.6 11.3 302 9.4
2005-01-28 08:08:06 51°14.399 2°54.966 310.1 11.3 302 9.5
2005-01-28 08:08:11 51°14.41 2°54.944 311.9 11.8 308 9.5
2005-01-28 08:08:16 51°14.42 2°54.925 313.7 11.9 310 9.5
2005-01-28 08:08:20 51°14.43 2°54.908 316.1 12.2 312 9.6
2005-01-28 08:08:26 51°14.443 2°54.888 318.8 12.2 312 9.6
2005-01-28 08:08:30 51°14.453 2°54.873 321.9 12.3 317 9.7
2005-01-28 08:08:36 51°14.469 2°54.849 324.7 12.3 317 9.6
2005-01-28 08:08:40 51°14.481 2°54.833 326.4 12.6 318 9.5
2005-01-28 08:08:46 51°14.495 2°54.813 328.3 12.6 318 9.5
2005-01-28 08:08:51 51°14.51 2°54.794 329.5 12.7 320 9.3
2005-01-28 08:08:56 51°14.523 2°54.778 330.4 12.8 320 9.3
2005-01-28 08:09:00 51°14.535 2°54.762 331.6 12.7 321 9.3
2005-01-28 08:09:06 51°14.55 2°54.743 331.8 12.7 321 9
2005-01-28 08:09:11 51°14.565 2°54.724 332.4 12.8 322 9.2
2005-01-28 08:09:16 51°14.578 2°54.709 333 12.9 322 9
2005-01-28 08:09:21 51°14.593 2°54.691 333.1 12.9 322 8.5
2005-01-28 08:09:26 51°14.607 2°54.675 334 12.9 322 8.6
2005-01-28 08:09:31 51°14.622 2°54.659 334.5 12.9 322 8.6
2005-01-28 08:09:36 51°14.636 2°54.643 335.1 12.7 325 8.6
2005-01-28 08:09:41 51°14.65 2°54.627 335.4 12.7 325 8.5
2005-01-28 08:09:46 51°14.666 2°54.611 336.3 12.8 326 8.5
2005-01-28 08:09:51 51°14.68 2°54.597 337.5 12.8 326 8.7
2005-01-28 08:09:56 51°14.696 2°54.582 338.4 12.8 326 8.7
2005-01-28 08:10:01 51°14.711 2°54.568 339.2 12.9 329 8.7
2005-01-28 08:10:06 51°14.727 2°54.554 340 12.9 329 8.7
2005-01-28 08:10:10 51°14.739 2°54.543 340.4 12.8 331 8.7
2005-01-28 08:10:16 51°14.759 2°54.527 341 12.9 331 8.4
2005-01-28 08:10:21 51°14.775 2°54.512 341.2 12.9 331 8.6
2005-01-28 08:10:26 51°14.789 2°54.5 341.4 12.9 331 8.6
2005-01-28 08:10:31 51°14.805 2°54.486 341.3 12.6 331 8.5
2005-01-28 08:10:36 51°14.82 2°54.473 340.9 12.9 331 8.4
2005-01-28 08:10:41 51°14.837 2°54.459 341 12.9 331 8.3
2005-01-28 08:10:46 51°14.853 2°54.445 341.1 12.5 331 8.5
2005-01-28 08:10:51 51°14.868 2°54.431 340.8 12.5 331 8.4
2005-01-28 08:10:56 51°14.881 2°54.419 340.6 12.6 331 8.3
2005-01-28 08:11:01 51°14.898 2°54.405 340.4 12.5 331 7.9
2005-01-28 08:11:05 51°14.911 2°54.393 340.3 12.5 331 7.9
2005-01-28 08:11:11 51°14.927 2°54.379 340.4 12.5 331 7.8
2005-01-28 08:11:16 51°14.943 2°54.365 340.3 12.5 331 7.7
2005-01-28 08:11:21 51°14.957 2°54.351 340.4 12.5 331 7.7
2005-01-28 08:11:26 51°14.972 2°54.338 340.1 12.2 330 7.6
2005-01-28 08:11:30 51°14.984 2°54.327 339.5 12.1 329 7.3
2005-01-28 08:11:36 51°15.002 2°54.31 339.1 12.1 329 7.4
2005-01-28 08:11:40 51°15.015 2°54.297 339.3 12.3 329 7.3
2005-01-28 08:11:46 51°15.031 2°54.282 339.5 12.3 329 7.4
2005-01-28 08:11:50 51°15.043 2°54.271 339.3 12.3 329 7.4
2005-01-28 08:11:56 51°15.061 2°54.254 339.4 12.3 329 7.4
2005-01-28 08:12:01 51°15.074 2°54.24 339.3 12.3 329 7.6
2005-01-28 08:12:06 51°15.088 2°54.227 339.2 12.3 329 7.7
2005-01-28 08:12:11 51°15.102 2°54.213 338.8 12.4 330 7.5
2005-01-28 08:12:16 51°15.119 2°54.198 338.8 12.4 330 7.4
2005-01-28 08:12:21 51°15.134 2°54.184 339.3 12.3 330 7.5
2005-01-28 08:12:26 51°15.15 2°54.17 339.7 12.7 330 7.6
2005-01-28 08:12:30 51°15.162 2°54.159 340.1 12.6 331 7.8
2005-01-28 08:12:36 51°15.18 2°54.144 340.6 12.5 331 7.9
2005-01-28 08:12:41 51°15.195 2°54.13 340.9 12.5 331 8
2005-01-28 08:12:46 51°15.21 2°54.116 340.9 12.5 331 8.1
2005-01-28 08:12:51 51°15.228 2°54.101 341.1 12.6 332 8
2005-01-28 08:12:56 51°15.241 2°54.09 341.3 12.6 332 8.2
2005-01-28 08:13:01 51°15.257 2°54.076 341.2 12.6 332 8.2
2005-01-28 08:13:06 51°15.273 2°54.063 341.1 12.8 331 8.2
2005-01-28 08:13:11 51°15.288 2°54.049 340.8 13 332 8.2
2005-01-28 08:13:16 51°15.304 2°54.034 340.6 12.9 331 8.3
2005-01-28 08:13:20 51°15.318 2°54.022 340.1 12.9 331 8.3
2005-01-28 08:13:26 51°15.336 2°54.007 340.3 12.9 331 8.4
2005-01-28 08:13:31 51°15.349 2°53.995 340.4 12.8 331 8.4
2005-01-28 08:13:36 51°15.366 2°53.979 340.6 12.8 331 8.6
2005-01-28 08:13:41 51°15.382 2°53.965 340.3 13 331 8.6
2005-01-28 08:13:46 51°15.398 2°53.951 340.3 13 331 8.4
2005-01-28 08:13:50 51°15.411 2°53.939 340.1 13.1 330 8.8
2005-01-28 08:13:56 51°15.429 2°53.922 340 13.2 330 8.9
2005-01-28 08:14:00 51°15.444 2°53.909 339.8 13 330 8.8
2005-01-28 08:14:05 51°15.46 2°53.895 340 13 330 8.9
2005-01-28 08:14:11 51°15.478 2°53.878 340.2 13.1 330 8.9
2005-01-28 08:14:16 51°15.493 2°53.864 339.8 13.1 330 9
2005-01-28 08:14:20 51°15.507 2°53.851 340 13.2 330 9
2005-01-28 08:14:26 51°15.525 2°53.834 339.3 13.1 329 9
2005-01-28 08:14:30 51°15.537 2°53.823 339.2 13.1 329 9.3
2005-01-28 08:14:35 51°15.554 2°53.807 339.5 13 330 9.3
2005-01-28 08:14:41 51°15.572 2°53.79 339.5 13.2 329 9.4
2005-01-28 08:14:46 51°15.586 2°53.776 339.5 13.2 329 9.6
2005-01-28 08:14:51 51°15.601 2°53.763 339.5 13.1 330 9.7
2005-01-28 08:14:56 51°15.617 2°53.748 339.8 12.9 330 9.8
2005-01-28 08:15:01 51°15.633 2°53.733 339.9 13.1 330 9.7
2005-01-28 08:15:06 51°15.648 2°53.718 340.4 13.1 330 9.7
2005-01-28 08:15:11 51°15.664 2°53.703 340.2 12.9 329 9.9
2005-01-28 08:15:16 51°15.681 2°53.687 340 12.9 329 9.9
2005-01-28 08:15:21 51°15.696 2°53.673 339.6 13 329 10
2005-01-28 08:15:26 51°15.711 2°53.659 339.6 13.1 329 10.2
2005-01-28 08:15:31 51°15.725 2°53.645 339.5 13.1 329 10.2
2005-01-28 08:15:36 51°15.742 2°53.628 339.5 13.1 329 10.4
2005-01-28 08:15:41 51°15.756 2°53.615 339.8 13.1 329 10.5
2005-01-28 08:15:46 51°15.773 2°53.6 340 12.7 330 10.1
2005-01-28 08:15:51 51°15.788 2°53.586 340.6 12.8 330 10.3
2005-01-28 08:15:56 51°15.804 2°53.571 340.7 12.7 330 10.2
2005-01-28 08:16:00 51°15.817 2°53.559 340.4 12.7 330 10.5
2005-01-28 08:16:06 51°15.834 2°53.543 340.4 12.7 329 10.4
2005-01-28 08:16:10 51°15.847 2°53.531 340.3 12.8 330 10.6
2005-01-28 08:16:16 51°15.866 2°53.513 340.3 12.8 330 10.4
2005-01-28 08:16:21 51°15.88 2°53.501 340.4 12.8 330 10.3
2005-01-28 08:16:26 51°15.895 2°53.486 340.5 12.8 330 10.5
2005-01-28 08:16:31 51°15.911 2°53.472 340.7 12.8 330 10.5
2005-01-28 08:16:36 51°15.925 2°53.459 340.7 13 330 10.7
2005-01-28 08:16:41 51°15.942 2°53.445 341.1 12.7 330 10.5
2005-01-28 08:16:46 51°15.958 2°53.433 342.2 12.7 332 10.7
2005-01-28 08:16:50 51°15.971 2°53.422 342.9 12.9 334 10.9
2005-01-28 08:16:56 51°15.989 2°53.409 344 12.9 334 10.8
2005-01-28 08:17:01 51°16.006 2°53.396 344.4 12.5 334 10.5
2005-01-28 08:17:06 51°16.021 2°53.384 345 12.5 334 10.7
2005-01-28 08:17:10 51°16.034 2°53.374 345.3 12.8 334 10.7
2005-01-28 08:17:16 51°16.053 2°53.359 344.9 12.8 334 10.7
2005-01-28 08:17:21 51°16.07 2°53.347 344.7 12.6 334 10.8
2005-01-28 08:17:26 51°16.086 2°53.335 344.6 12.6 334 10.8
2005-01-28 08:17:31 51°16.1 2°53.325 344.9 12.6 334 11.1
2005-01-28 08:17:36 51°16.118 2°53.311 345 12.9 335 10.9
2005-01-28 08:17:41 51°16.133 2°53.3 345.1 12.9 335 11.1
2005-01-28 08:17:46 51°16.149 2°53.287 345 12.7 335 11.1
2005-01-28 08:17:51 51°16.167 2°53.274 344.7 12.7 335 11.1
2005-01-28 08:17:56 51°16.183 2°53.261 344.4 12.7 335 11.2
2005-01-28 08:18:00 51°16.196 2°53.25 344.3 12.9 334 11.2
2005-01-28 08:18:06 51°16.214 2°53.237 344.2 13 334 11.3
2005-01-28 08:18:11 51°16.228 2°53.225 344.5 12.9 334 11.3
2005-01-28 08:18:16 51°16.246 2°53.211 344.3 12.9 334 11.2
2005-01-28 08:18:21 51°16.263 2°53.198 344.1 12.9 333 11
2005-01-28 08:18:26 51°16.279 2°53.185 343.9 13 333 11.3
2005-01-28 08:18:31 51°16.293 2°53.174 343.8 12.7 334 11.3
2005-01-28 08:18:36 51°16.31 2°53.161 344.1 12.8 334 11.2
2005-01-28 08:18:41 51°16.327 2°53.148 344.7 12.8 334 11.1
2005-01-28 08:18:46 51°16.341 2°53.136 344.5 12.9 334 11.4
2005-01-28 08:18:50 51°16.354 2°53.126 344.5 12.5 334 11
2005-01-28 08:18:56 51°16.375 2°53.11 344 12.5 334 11.1
2005-01-28 08:19:01 51°16.389 2°53.099 344 12.5 335 11.4
2005-01-28 08:19:06 51°16.405 2°53.087 344.7 12.5 335 11.3
2005-01-28 08:19:10 51°16.417 2°53.078 344.3 12.5 334 11.2
2005-01-28 08:19:16 51°16.437 2°53.062 344.3 12.5 334 11.2
2005-01-28 08:19:21 51°16.453 2°53.049 344.2 12.7 334 11.2
2005-01-28 08:19:26 51°16.469 2°53.037 344.2 12.7 334 11.2
2005-01-28 08:19:31 51°16.484 2°53.025 344.1 12.7 334 11.1
2005-01-28 08:19:36 51°16.501 2°53.012 344.4 12.9 334 11.3
2005-01-28 08:19:41 51°16.518 2°52.999 344 12.9 334 11.1
2005-01-28 08:19:46 51°16.533 2°52.988 344.2 12.8 334 11.2
2005-01-28 08:19:51 51°16.551 2°52.974 344.2 12.8 334 10.8
2005-01-28 08:19:56 51°16.567 2°52.962 344.5 12.8 334 10.8
2005-01-28 08:20:00 51°16.58 2°52.952 344.7 13 334 10.8
2005-01-28 08:20:06 51°16.598 2°52.938 344.5 12.9 334 10.7
2005-01-28 08:20:11 51°16.613 2°52.927 344.4 12.9 334 10.7
2005-01-28 08:20:16 51°16.63 2°52.914 344.3 12.9 334 10.6
2005-01-28 08:20:21 51°16.646 2°52.902 344.6 12.8 335 10.5
2005-01-28 08:20:26 51°16.664 2°52.89 344.9 13 336 10.3
2005-01-28 08:20:31 51°16.677 2°52.879 345 12.9 335 10.4
2005-01-28 08:20:36 51°16.695 2°52.866 344.7 12.8 335 10
2005-01-28 08:20:41 51°16.711 2°52.853 344.7 12.8 335 10
2005-01-28 08:20:46 51°16.728 2°52.84 344.2 12.6 334 9.6
2005-01-28 08:20:51 51°16.741 2°52.83 343.9 12.6 335 9.7
2005-01-28 08:20:56 51°16.759 2°52.816 344.1 12.6 335 9.4
2005-01-28 08:21:01 51°16.775 2°52.806 344.1 12.7 335 9.1
2005-01-28 08:21:06 51°16.791 2°52.793 344.5 12.6 336 8.6
2005-01-28 08:21:11 51°16.805 2°52.782 345.1 12.6 335 8.5
2005-01-28 08:21:16 51°16.823 2°52.77 344.9 12.4 335 8.5
2005-01-28 08:21:21 51°16.836 2°52.76 344.9 12.2 335 8.6
2005-01-28 08:21:26 51°16.852 2°52.748 344.9 12.2 335 8.4
2005-01-28 08:21:31 51°16.866 2°52.737 344.6 12.2 334 8.1
2005-01-28 08:21:36 51°16.883 2°52.724 344 12.5 334 8.1
2005-01-28 08:21:41 51°16.9 2°52.71 343.8 12.5 334 8
2005-01-28 08:21:46 51°16.914 2°52.697 342.7 12 331 7.9
2005-01-28 08:21:51 51°16.928 2°52.685 341.7 12.1 331 8.3
2005-01-28 08:21:56 51°16.943 2°52.671 341 12.4 330 8.4
2005-01-28 08:22:01 51°16.958 2°52.657 340.4 12.4 330 8.6
2005-01-28 08:22:06 51°16.974 2°52.643 340.1 12.4 330 8.9
2005-01-28 08:22:11 51°16.989 2°52.629 339.7 12.6 330 9.1
2005-01-28 08:22:16 51°17.005 2°52.615 339.6 12.6 330 9.1
2005-01-28 08:22:20 51°17.017 2°52.604 340 12.9 331 9
2005-01-28 08:22:24 51°17.029 2°52.593 340.4 12.4 331 8.6
2005-01-28 08:22:31 51°17.05 2°52.574 340.3 12.4 330 8.4
2005-01-28 08:22:36 51°17.063 2°52.56 339.6 12.4 329 8.5
2005-01-28 08:22:41 51°17.078 2°52.545 338.9 12.4 328 8.3
2005-01-28 08:22:45 51°17.091 2°52.532 338.3 12.5 328 8.6
2005-01-28 08:22:51 51°17.106 2°52.517 337.7 12.5 328 8.6
2005-01-28 08:22:56 51°17.121 2°52.501 336.7 12.2 327 8.5
2005-01-28 08:23:01 51°17.134 2°52.488 337.1 12.1 327 9
2005-01-28 08:23:06 51°17.148 2°52.473 337.2 12.1 327 9
2005-01-28 08:23:10 51°17.16 2°52.461 337 12.3 327 8.8
2005-01-28 08:23:15 51°17.176 2°52.444 337.1 12.5 327 8.8
2005-01-28 08:23:21 51°17.193 2°52.428 337 12.5 327 9
2005-01-28 08:23:26 51°17.206 2°52.413 337.4 12.3 328 9.2
2005-01-28 08:23:31 51°17.22 2°52.399 337.2 12.3 328 9.2
2005-01-28 08:23:36 51°17.235 2°52.381 336.1 12.6 326 9.2
2005-01-28 08:23:41 51°17.249 2°52.365 335.3 12.6 324 9.2
2005-01-28 08:23:46 51°17.264 2°52.348 334.7 12.6 324 9.2
2005-01-28 08:23:51 51°17.276 2°52.333 334.1 12.6 324 9.4
2005-01-28 08:23:56 51°17.292 2°52.315 333.7 12.6 324 9.5
2005-01-28 08:24:01 51°17.306 2°52.299 334.1 12.8 324 9.6
2005-01-28 08:24:06 51°17.322 2°52.282 334.3 12.8 325 9.4
2005-01-28 08:24:11 51°17.336 2°52.264 334.8 12.8 325 9.7
2005-01-28 08:24:16 51°17.349 2°52.249 334.5 12.8 325 9.5
2005-01-28 08:24:20 51°17.362 2°52.234 334.2 12.6 324 9.3
2005-01-28 08:24:26 51°17.378 2°52.216 334.1 12.6 324 9.5
2005-01-28 08:24:30 51°17.389 2°52.202 334 12.7 323 9.4
2005-01-28 08:24:36 51°17.406 2°52.184 333.7 12.7 323 9.5
2005-01-28 08:24:40 51°17.419 2°52.168 334.4 12.6 324 9.4
2005-01-28 08:24:46 51°17.434 2°52.149 334.5 12.6 324 9.4
2005-01-28 08:24:50 51°17.446 2°52.137 334.5 12.7 324 9.4
2005-01-28 08:24:56 51°17.462 2°52.117 333.8 12.7 324 9.6
2005-01-28 08:25:00 51°17.476 2°52.102 334.1 12.6 324 9.4
2005-01-28 08:25:06 51°17.491 2°52.085 334.3 12.6 324 9.5
2005-01-28 08:25:11 51°17.504 2°52.068 334.5 12.2 322 9.4
2005-01-28 08:25:16 51°17.519 2°52.048 333 12.3 320 9.3
2005-01-28 08:25:21 51°17.531 2°52.03 330.2 12.6 319 9.6
2005-01-28 08:25:26 51°17.543 2°52.011 328.6 12.6 317 9.5
2005-01-28 08:25:31 51°17.556 2°51.99 327.3 12.8 316 9.3
2005-01-28 08:25:36 51°17.569 2°51.969 326.4 12.8 315 9.5
2005-01-28 08:25:41 51°17.581 2°51.95 325 12.8 314 9.5
2005-01-28 08:25:46 51°17.593 2°51.93 324.4 12.8 314 9.3
2005-01-28 08:25:51 51°17.604 2°51.912 324.5 12.8 314 9.4
2005-01-28 08:25:56 51°17.618 2°51.89 324.7 12.9 314 9.4
2005-01-28 08:26:00 51°17.628 2°51.871 324.9 12.8 312 9.3
2005-01-28 08:26:05 51°17.64 2°51.849 323.2 13 311 9.2
2005-01-28 08:26:11 51°17.652 2°51.825 322 13 311 8.8
2005-01-28 08:26:16 51°17.663 2°51.803 320 13 311 9.2
2005-01-28 08:26:21 51°17.674 2°51.781 319.4 12.9 310 9.3
2005-01-28 08:26:26 51°17.685 2°51.758 319.6 12.9 310 9
2005-01-28 08:26:31 51°17.698 2°51.734 319 12.8 309 9
2005-01-28 08:26:36 51°17.708 2°51.713 318.9 12.8 309 9
2005-01-28 08:26:41 51°17.72 2°51.69 319 12.7 309 9.1
2005-01-28 08:26:46 51°17.731 2°51.668 318.9 12.7 309 8.9
2005-01-28 08:26:51 51°17.741 2°51.649 319 13 309 9.1
2005-01-28 08:26:56 51°17.753 2°51.625 319.2 12.9 309 9
2005-01-28 08:27:00 51°17.764 2°51.605 319.6 13 309 8.9
2005-01-28 08:27:06 51°17.777 2°51.58 319.3 13.1 308 8.9
2005-01-28 08:27:10 51°17.786 2°51.562 319.6 13 309 9.1
2005-01-28 08:27:16 51°17.799 2°51.536 319.4 13.1 309 9.1
2005-01-28 08:27:20 51°17.81 2°51.516 319.6 13.2 309 9.2
2005-01-28 08:27:25 51°17.821 2°51.493 319.8 13.2 310 9.3
2005-01-28 08:27:31 51°17.836 2°51.465 320 13.1 309 9.2
2005-01-28 08:27:36 51°17.846 2°51.444 319.7 13 309 9.2
2005-01-28 08:27:40 51°17.855 2°51.425 319.5 13.1 309 9.4
2005-01-28 08:27:46 51°17.868 2°51.4 319.7 13.2 309 9.4
2005-01-28 08:27:51 51°17.878 2°51.379 319.6 13.2 310 9.5
2005-01-28 08:27:56 51°17.892 2°51.353 319.9 13 308 9.3
2005-01-28 08:28:00 51°17.901 2°51.334 319.5 13.1 308 9.7
2005-01-28 08:28:05 51°17.913 2°51.312 318.7 13.3 309 9.7
2005-01-28 08:28:11 51°17.925 2°51.285 319 13.3 309 9.8
2005-01-28 08:28:16 51°17.938 2°51.263 319.5 13.3 310 10
2005-01-28 08:28:21 51°17.95 2°51.241 319.9 13.4 310 10.2
2005-01-28 08:28:26 51°17.961 2°51.22 320.3 13.4 310 10.5
2005-01-28 08:28:30 51°17.971 2°51.2 320.6 13.1 310 10.4
2005-01-28 08:28:36 51°17.985 2°51.174 320.3 13.4 309 10.4
2005-01-28 08:28:41 51°17.997 2°51.15 320.2 13.3 309 10.4
2005-01-28 08:28:46 51°18.009 2°51.128 319.8 13.3 309 10.8
2005-01-28 08:28:50 51°18.018 2°51.109 319.3 13.3 309 11
2005-01-28 08:28:56 51°18.032 2°51.082 319.6 13.2 309 10.9
2005-01-28 08:29:01 51°18.044 2°51.059 319.5 13.2 309 11
2005-01-28 08:29:06 51°18.055 2°51.037 319.3 13.2 309 11.3
2005-01-28 08:29:11 51°18.066 2°51.013 319.4 13.5 310 11.3
2005-01-28 08:29:16 51°18.079 2°50.989 319.8 13 308 11.4
2005-01-28 08:29:21 51°18.088 2°50.968 318.6 13.1 308 11.7
2005-01-28 08:29:26 51°18.099 2°50.944 317.1 13.1 308 11.7
2005-01-28 08:29:30 51°18.108 2°50.925 316.5 13.2 306 11.7
2005-01-28 08:29:36 51°18.121 2°50.894 316.1 13.2 306 11.6
2005-01-28 08:29:41 51°18.131 2°50.871 315.2 13.2 304 12
2005-01-28 08:29:46 51°18.141 2°50.846 315.1 13.3 304 12
2005-01-28 08:29:51 51°18.152 2°50.823 315.3 13.2 305 12.3
2005-01-28 08:29:56 51°18.163 2°50.796 315.2 13.2 305 12.3
2005-01-28 08:30:01 51°18.173 2°50.774 315.4 13.5 305 12.3
2005-01-28 08:30:06 51°18.183 2°50.75 315.3 13.5 305 12.4
2005-01-28 08:30:11 51°18.193 2°50.725 315.8 13.5 305 12.3
2005-01-28 08:30:16 51°18.203 2°50.7 315.1 13.3 304 12.3
2005-01-28 08:30:21 51°18.214 2°50.675 315.4 13.2 304 12.1
2005-01-28 08:30:26 51°18.224 2°50.652 315 13.2 304 12.4
2005-01-28 08:30:31 51°18.233 2°50.631 315.6 13.3 305 12.8
2005-01-28 08:30:36 51°18.243 2°50.605 316 13.3 305 12.9
2005-01-28 08:30:41 51°18.255 2°50.577 315.9 12.8 303 12.5
2005-01-28 08:30:46 51°18.264 2°50.554 316.3 12.9 304 12.1
2005-01-28 08:30:51 51°18.273 2°50.532 314.5 12.8 303 12.4
2005-01-28 08:30:56 51°18.283 2°50.507 315.1 12.8 304 12.4
2005-01-28 08:31:01 51°18.294 2°50.485 315.3 12.8 304 13
2005-01-28 08:31:06 51°18.303 2°50.462 316 12.8 304 13.4
2005-01-28 08:31:11 51°18.313 2°50.439 316.3 12.8 304 13.5
2005-01-28 08:31:16 51°18.324 2°50.413 316.2 12.9 303 13.3
2005-01-28 08:31:21 51°18.334 2°50.39 315.7 12.9 303 13.4
2005-01-28 08:31:26 51°18.345 2°50.365 315.9 12.9 303 13.6
2005-01-28 08:31:31 51°18.355 2°50.341 315.8 12.9 303 13.7
2005-01-28 08:31:36 51°18.365 2°50.318 315.6 13.3 305 13.9
2005-01-28 08:31:41 51°18.375 2°50.294 316.1 13.1 305 13.8
2005-01-28 08:31:46 51°18.386 2°50.269 315.8 13.1 305 13.7
2005-01-28 08:31:51 51°18.395 2°50.247 315.4 13.4 304 13.9
2005-01-28 08:31:56 51°18.407 2°50.219 315.6 13.4 304 13.6
2005-01-28 08:32:01 51°18.417 2°50.194 315.3 13.4 304 13.5
2005-01-28 08:32:06 51°18.428 2°50.168 315.3 13.5 304 13.1
2005-01-28 08:32:11 51°18.437 2°50.148 314.8 13.5 304 13.4
2005-01-28 08:32:16 51°18.448 2°50.12 314.5 13.1 304 13.2
2005-01-28 08:32:21 51°18.457 2°50.097 315.1 13.2 305 13.1
2005-01-28 08:32:26 51°18.468 2°50.073 315.3 13.2 305 13.1
2005-01-28 08:32:31 51°18.477 2°50.052 315.2 13.1 304 13.5
2005-01-28 08:32:36 51°18.489 2°50.022 315.7 13.2 304 13.2
2005-01-28 08:32:41 51°18.498 2°50 315.7 13.2 304 13.1
2005-01-28 08:32:46 51°18.509 2°49.977 315.4 13.2 304 13
2005-01-28 08:32:51 51°18.519 2°49.952 315.4 13.2 304 12.9
2005-01-28 08:32:56 51°18.529 2°49.928 315.7 13.2 304 12.6
2005-01-28 08:33:01 51°18.539 2°49.904 315.5 13.4 304 12.8
2005-01-28 08:33:06 51°18.547 2°49.882 315.9 13.4 304 12.6
2005-01-28 08:33:11 51°18.559 2°49.854 315.9 13.4 304 12
2005-01-28 08:33:16 51°18.568 2°49.833 316 12.9 305 12
2005-01-28 08:33:21 51°18.579 2°49.809 315.5 12.9 305 12
2005-01-28 08:33:26 51°18.59 2°49.785 316.2 13.1 306 12.1
2005-01-28 08:33:30 51°18.599 2°49.766 316.5 13.3 306 12
2005-01-28 08:33:36 51°18.61 2°49.739 316.4 13.3 306 11.4
2005-01-28 08:33:40 51°18.62 2°49.717 316.3 13 305 11.3
2005-01-28 08:33:46 51°18.631 2°49.69 316.4 13 305 11.5
2005-01-28 08:33:50 51°18.64 2°49.671 316.3 13.1 305 11.5
2005-01-28 08:33:56 51°18.651 2°49.646 316 13.1 305 11.3
2005-01-28 08:34:01 51°18.662 2°49.622 316.4 13.1 305 11
2005-01-28 08:34:06 51°18.672 2°49.599 316.5 13.1 305 10.7
2005-01-28 08:34:11 51°18.685 2°49.572 316.9 13.1 306 10.2
2005-01-28 08:34:16 51°18.694 2°49.551 316.5 13.1 306 10.1
2005-01-28 08:34:21 51°18.705 2°49.528 316.4 13.1 305 10.2
2005-01-28 08:34:26 51°18.716 2°49.504 316.9 13.1 305 10.1
2005-01-28 08:34:31 51°18.725 2°49.482 316.4 13.1 305 9.9
2005-01-28 08:34:36 51°18.736 2°49.457 316.2 13 305 9.7
2005-01-28 08:34:41 51°18.746 2°49.433 316.5 13 305 9.7
2005-01-28 08:34:46 51°18.758 2°49.408 316.3 13 305 9.5
2005-01-28 08:34:50 51°18.766 2°49.39 316.1 13.2 305 9.5
2005-01-28 08:34:56 51°18.779 2°49.36 316.7 13 303 9.9
2005-01-28 08:35:00 51°18.787 2°49.34 316.1 12.9 304 10
2005-01-28 08:35:06 51°18.799 2°49.313 315.9 13 304 9.7
2005-01-28 08:35:11 51°18.81 2°49.289 315.6 13 304 10.1
2005-01-28 08:35:16 51°18.819 2°49.266 316 13.1 306 10.6
2005-01-28 08:35:21 51°18.831 2°49.241 316.5 13.3 305 10.9
2005-01-28 08:35:26 51°18.839 2°49.219 316.2 13.3 305 10.4
2005-01-28 08:35:31 51°18.849 2°49.195 315.7 13.3 305 9.6
2005-01-28 08:35:36 51°18.86 2°49.171 316.3 13 305 10.3
2005-01-28 08:35:41 51°18.871 2°49.147 316.4 13.2 305 10.4
2005-01-28 08:35:46 51°18.882 2°49.124 316.2 13.1 306 10.3
2005-01-28 08:35:51 51°18.893 2°49.1 316.4 13.2 305 10.6
2005-01-28 08:35:56 51°18.905 2°49.074 316.9 13.3 306 11.1
2005-01-28 08:36:01 51°18.914 2°49.052 316.9 13.5 306 11
2005-01-28 08:36:06 51°18.925 2°49.027 317.1 13.4 305 10.9
2005-01-28 08:36:11 51°18.936 2°49.004 315.5 13.4 305 11.1
2005-01-28 08:36:16 51°18.946 2°48.981 315.9 13.4 306 11.2
2005-01-28 08:36:21 51°18.957 2°48.956 316.5 13.3 305 11.3
2005-01-28 08:36:26 51°18.968 2°48.932 316.5 13.3 305 11.8
2005-01-28 08:36:30 51°18.976 2°48.914 315.7 13.3 305 12.3
2005-01-28 08:36:36 51°18.989 2°48.884 316.4 13.3 305 12.2
2005-01-28 08:36:41 51°19 2°48.858 315.7 13.3 305 12.2
2005-01-28 08:36:46 51°19.011 2°48.833 316.4 13.5 305 12.7
2005-01-28 08:36:51 51°19.02 2°48.813 315.7 13.5 305 13.4
2005-01-28 08:36:56 51°19.032 2°48.785 315.7 13.5 305 13.4
2005-01-28 08:37:00 51°19.041 2°48.766 316.1 13.2 306 13.4
2005-01-28 08:37:06 51°19.053 2°48.74 316.4 13.2 306 13.7
2005-01-28 08:37:11 51°19.063 2°48.717 316.9 13.6 304 13.7
2005-01-28 08:37:16 51°19.072 2°48.695 316.6 12.9 304 14.2
2005-01-28 08:37:21 51°19.082 2°48.671 316.3 12.8 303 14.2
2005-01-28 08:37:26 51°19.093 2°48.644 315.2 12.5 303 13.8
2005-01-28 08:37:30 51°19.1 2°48.628 315.7 12.5 304 13.9
2005-01-28 08:37:36 51°19.112 2°48.6 315.7 12.5 304 14.4
2005-01-28 08:37:41 51°19.123 2°48.574 315.6 12.6 304 14.5
2005-01-28 08:37:46 51°19.133 2°48.552 315.6 12.6 304 14.5
2005-01-28 08:37:50 51°19.14 2°48.534 316 13 305 15.3
2005-01-28 08:37:56 51°19.152 2°48.507 315.6 13 304 15.6
2005-01-28 08:38:00 51°19.161 2°48.485 316 13.1 305 16
2005-01-28 08:38:06 51°19.172 2°48.459 316.6 13.2 304 16.3
2005-01-28 08:38:11 51°19.182 2°48.436 316.4 13.1 305 16.1
2005-01-28 08:38:16 51°19.195 2°48.407 316.3 13.1 305 16.4
2005-01-28 08:38:21 51°19.205 2°48.386 316.4 13.1 305 16.5
2005-01-28 08:38:25 51°19.213 2°48.365 316.4 13.1 305 17.3
2005-01-28 08:38:31 51°19.225 2°48.335 316.2 13.1 305 33.8
2005-01-28 08:38:36 51°19.234 2°48.315 315.1 13.3 304 32
2005-01-28 08:38:41 51°19.245 2°48.29 316.4 13 305 33.7
2005-01-28 08:38:46 51°19.254 2°48.266 316.9 13.3 305 35.4
2005-01-28 08:38:51 51°19.266 2°48.24 316.5 13.3 305 17.4
2005-01-28 08:38:56 51°19.275 2°48.217 316.3 13.2 305 17.9
2005-01-28 08:39:01 51°19.285 2°48.193 315.9 13.1 304 18
2005-01-28 08:39:06 51°19.297 2°48.168 316 13.2 305 18.1
2005-01-28 08:39:11 51°19.306 2°48.146 316 13.3 304 18.1
2005-01-28 08:39:16 51°19.317 2°48.12 316.1 13.3 304 18.7
2005-01-28 08:39:21 51°19.327 2°48.097 316 13.4 304 18.8
2005-01-28 08:39:24 51°19.335 2°48.08 316.2 13.2 304 18.4
2005-01-28 08:39:30 51°19.346 2°48.053 315.5 13 305 18.6
2005-01-28 08:39:36 51°19.358 2°48.024 315.7 13.3 305 18.9
2005-01-28 08:39:41 51°19.37 2°47.996 316.1 13.1 305 18.8
2005-01-28 08:39:46 51°19.38 2°47.975 316.6 13 304 19.2
2005-01-28 08:39:51 51°19.388 2°47.955 316 13.1 304 19.9
2005-01-28 08:39:56 51°19.399 2°47.929 316.4 13.1 304 20.1
2005-01-28 08:40:01 51°19.41 2°47.903 316.2 13.1 304 20
2005-01-28 08:40:05 51°19.419 2°47.882 316.3 13.1 304 20.3
2005-01-28 08:40:10 51°19.428 2°47.861 316.4 13.3 304 20.5
2005-01-28 08:40:16 51°19.442 2°47.829 316.4 13.3 304 20.7
2005-01-28 08:40:21 51°19.452 2°47.806 316 13.5 304 21
2005-01-28 08:40:26 51°19.461 2°47.782 316.2 13.5 304 21.1
2005-01-28 08:40:31 51°19.472 2°47.758 316.3 13.5 304 21.1
2005-01-28 08:40:36 51°19.483 2°47.73 316 13.5 304 21.1
2005-01-28 08:40:41 51°19.493 2°47.707 315.7 13.4 304 21.4
2005-01-28 08:40:46 51°19.503 2°47.68 314.3 13.4 304 21.1
2005-01-28 08:40:51 51°19.513 2°47.654 314 13.5 302 20.9
2005-01-28 08:40:56 51°19.523 2°47.63 313.3 13.5 302 21.3
2005-01-28 08:41:00 51°19.532 2°47.606 312.7 13.6 301 21.3
2005-01-28 08:41:06 51°19.542 2°47.576 312.7 13.5 301 21.2
2005-01-28 08:41:11 51°19.552 2°47.551 312 13.6 301 21.2
2005-01-28 08:41:16 51°19.563 2°47.523 311.4 13.6 301 21.3
2005-01-28 08:41:21 51°19.572 2°47.501 312.1 13.6 301 21.3
2005-01-28 08:41:26 51°19.58 2°47.473 312.1 13.6 301 21.4
2005-01-28 08:41:31 51°19.586 2°47.448 309.5 13.7 297 21.5
2005-01-28 08:41:36 51°19.594 2°47.415 306.8 13.7 294 20.8
2005-01-28 08:41:41 51°19.602 2°47.387 304.1 13.5 293 20.9
2005-01-28 08:41:46 51°19.608 2°47.361 303 13.6 291 21.1
2005-01-28 08:41:51 51°19.615 2°47.335 302.4 13.7 293 21.1
2005-01-28 08:41:56 51°19.623 2°47.302 302.4 13.6 291 21.1
2005-01-28 08:42:01 51°19.63 2°47.275 302.6 13.6 291 21.5
2005-01-28 08:42:06 51°19.637 2°47.248 301.8 13.7 291 21.5
2005-01-28 08:42:11 51°19.643 2°47.217 301.9 13.7 291 21.3
2005-01-28 08:42:16 51°19.649 2°47.19 301.7 13.7 291 20.9
2005-01-28 08:42:21 51°19.656 2°47.162 300.7 13.7 291 20.9
2005-01-28 08:42:26 51°19.662 2°47.136 301.5 13.7 291 21.2
2005-01-28 08:42:31 51°19.668 2°47.108 302.4 13.5 291 21
2005-01-28 08:42:36 51°19.675 2°47.076 301.5 13.5 290 21.4
2005-01-28 08:42:41 51°19.682 2°47.05 301.6 13.7 290 21.5
2005-01-28 08:42:46 51°19.689 2°47.019 301.7 13.7 290 21.2
2005-01-28 08:42:51 51°19.695 2°46.994 302.3 13.9 289 21.2
2005-01-28 08:42:56 51°19.702 2°46.964 301.9 13.9 289 20.8
2005-01-28 08:43:00 51°19.708 2°46.937 301.5 13.7 290 20.5
2005-01-28 08:43:06 51°19.716 2°46.906 301.6 13.9 291 20.4
2005-01-28 08:43:11 51°19.723 2°46.879 301.9 13.7 292 20.4
2005-01-28 08:43:16 51°19.729 2°46.851 302 13.9 291 20.3
2005-01-28 08:43:21 51°19.736 2°46.82 302.9 13.9 291 19.9
2005-01-28 08:43:26 51°19.743 2°46.794 301.9 13.7 290 19.8
2005-01-28 08:43:30 51°19.748 2°46.772 302 13.6 291 19.1
2005-01-28 08:43:36 51°19.757 2°46.734 301.9 13.6 291 18.3
2005-01-28 08:43:41 51°19.763 2°46.708 301.9 13.7 291 19
2005-01-28 08:43:46 51°19.77 2°46.677 302.2 13.9 290 18.8
2005-01-28 08:43:51 51°19.776 2°46.653 301.4 13.9 290 18.2
2005-01-28 08:43:56 51°19.782 2°46.623 301 13.3 290 18.4
2005-01-28 08:44:01 51°19.788 2°46.598 301.2 13.4 290 18.6
2005-01-28 08:44:06 51°19.795 2°46.568 300.9 13.4 290 18.3
2005-01-28 08:44:10 51°19.8 2°46.546 301.4 13.5 291 16.3
2005-01-28 08:44:15 51°19.808 2°46.515 301.2 13.6 290 17.8
2005-01-28 08:44:21 51°19.815 2°46.481 301.9 13.6 290 17.4
2005-01-28 08:44:26 51°19.822 2°46.457 301.3 13.6 290 16.6
2005-01-28 08:44:31 51°19.828 2°46.428 302.4 13.4 292 16.1
2005-01-28 08:44:36 51°19.835 2°46.4 301.9 13.7 289 16
2005-01-28 08:44:41 51°19.842 2°46.371 301.5 13.6 291 14.9
2005-01-28 08:44:46 51°19.848 2°46.344 302.4 13.6 291 15.1
2005-01-28 08:44:51 51°19.856 2°46.31 302.6 13.3 291 15.6
2005-01-28 08:44:56 51°19.863 2°46.282 301.4 13.3 291 15.6
2005-01-28 08:45:00 51°19.868 2°46.261 301.4 13.7 291 15.1
2005-01-28 08:45:06 51°19.875 2°46.229 302.3 13.6 292 14.5
2005-01-28 08:45:11 51°19.884 2°46.198 302.6 13.7 290 13.6
2005-01-28 08:45:16 51°19.89 2°46.175 301.6 13.8 290 12.7
2005-01-28 08:45:21 51°19.896 2°46.144 301.8 13.8 290 12.3
2005-01-28 08:45:25 51°19.901 2°46.122 302.3 13.5 291 12
2005-01-28 08:45:31 51°19.91 2°46.086 301.5 13.6 289 12.9
2005-01-28 08:45:36 51°19.917 2°46.059 302.3 13.8 292 13.6
2005-01-28 08:45:41 51°19.924 2°46.033 302.2 13.8 292 12.6
2005-01-28 08:45:46 51°19.931 2°46.002 303.3 13.6 293 13.2
2005-01-28 08:45:50 51°19.936 2°45.978 302.6 14 291 14.1
2005-01-28 08:45:56 51°19.944 2°45.949 302.1 13.5 292 13.3
2005-01-28 08:46:01 51°19.951 2°45.918 303 13.5 292 10.4
2005-01-28 08:46:06 51°19.959 2°45.889 302.6 13.5 292 13.1
2005-01-28 08:46:11 51°19.964 2°45.865 302.6 13.5 291 12.7
2005-01-28 08:46:16 51°19.972 2°45.835 302.6 13.5 290 13.9
2005-01-28 08:46:21 51°19.979 2°45.807 301.9 13.7 292 14.3
2005-01-28 08:46:26 51°19.986 2°45.778 302.5 13.7 293 14.8
2005-01-28 08:46:30 51°19.992 2°45.757 302.6 13.8 293 15.7
2005-01-28 08:46:36 51°20.002 2°45.723 303.3 13.8 293 14.3
2005-01-28 08:46:40 51°20.007 2°45.697 302.9 13.8 291 13.1
2005-01-28 08:46:46 51°20.015 2°45.667 302 13.8 291 12.6
2005-01-28 08:46:51 51°20.023 2°45.633 301.5 13.8 291 14.2
2005-01-28 08:46:56 51°20.029 2°45.607 301.8 13.9 291 14.4
2005-01-28 08:47:01 51°20.035 2°45.581 301.8 13.9 291 15.5
2005-01-28 08:47:06 51°20.042 2°45.547 301.7 14 290 16.5
2005-01-28 08:47:11 51°20.049 2°45.521 301 13.9 289 17.5
2005-01-28 08:47:16 51°20.056 2°45.492 301.9 13.4 291 49.6
2005-01-28 08:47:21 51°20.063 2°45.466 302.1 13.4 291 19.9
2005-01-28 08:47:26 51°20.07 2°45.438 301.7 13.7 290 20.4
2005-01-28 08:47:30 51°20.075 2°45.417 302.6 13.6 292 21.1
2005-01-28 08:47:36 51°20.084 2°45.378 301.7 13.6 292 21.3
2005-01-28 08:47:41 51°20.091 2°45.353 302.3 13.7 292 21.7
2005-01-28 08:47:46 51°20.097 2°45.327 302.4 13.8 291 22.1
2005-01-28 08:47:51 51°20.103 2°45.3 302 13.6 291 22.2
2005-01-28 08:47:56 51°20.11 2°45.267 302.5 13.6 291 21.8
2005-01-28 08:48:01 51°20.118 2°45.24 301.3 13.5 290 22.2
2005-01-28 08:48:06 51°20.124 2°45.214 301.5 13.5 290 22.9
2005-01-28 08:48:11 51°20.13 2°45.188 301.8 13.5 290 22.9
2005-01-28 08:48:16 51°20.138 2°45.156 302.6 13.5 291 22.5
2005-01-28 08:48:21 51°20.145 2°45.128 303.1 13.5 293 22.7
2005-01-28 08:48:26 51°20.151 2°45.101 303.3 13.5 293 23.4
2005-01-28 08:48:30 51°20.155 2°45.077 301.3 13.8 286 23.3
2005-01-28 08:48:36 51°20.16 2°45.038 296.7 13.8 286 23.5
2005-01-28 08:48:40 51°20.163 2°45.013 293.9 14 281 23.9
2005-01-28 08:48:46 51°20.166 2°44.978 291.7 14 281 23.7
2005-01-28 08:48:51 51°20.169 2°44.948 290.1 14 281 23.8
2005-01-28 08:48:56 51°20.172 2°44.916 289.8 14.2 277 23.5
2005-01-28 08:49:01 51°20.174 2°44.885 288.4 14.2 277 23.6
2005-01-28 08:49:06 51°20.177 2°44.853 287.5 14.2 277 23.8
2005-01-28 08:49:11 51°20.18 2°44.819 287.2 14.2 277 24.2
2005-01-28 08:49:16 51°20.182 2°44.79 287.3 14.5 276 24.5
2005-01-28 08:49:21 51°20.185 2°44.759 287.1 14.3 279 24.7
2005-01-28 08:49:26 51°20.188 2°44.729 287.9 14.6 276 24.8
2005-01-28 08:49:31 51°20.191 2°44.7 287.7 14.1 280 24.7
2005-01-28 08:49:36 51°20.194 2°44.665 287.9 14.1 280 24.5
2005-01-28 08:49:41 51°20.196 2°44.635 288.8 14.2 278 24.7
2005-01-28 08:49:45 51°20.199 2°44.605 288.5 14.5 276 24.7
2005-01-28 08:49:51 51°20.201 2°44.571 287.4 14.5 276 24.7
2005-01-28 08:49:56 51°20.204 2°44.538 288.5 14.3 276 24.6
2005-01-28 08:50:01 51°20.206 2°44.509 287.3 14.3 277 25
2005-01-28 08:50:06 51°20.209 2°44.476 286.9 14.3 277 25.2
2005-01-28 08:50:11 51°20.211 2°44.441 287.1 14.2 278 25.5
2005-01-28 08:50:16 51°20.214 2°44.41 286.7 14.2 278 24.5
2005-01-28 08:50:20 51°20.215 2°44.385 286.8 14.2 278 24.6
2005-01-28 08:50:26 51°20.218 2°44.35 285.9 14.5 275 25.5
2005-01-28 08:50:31 51°20.22 2°44.318 287.5 14.5 275 25.6
2005-01-28 08:50:36 51°20.222 2°44.286 287.2 14.2 278 25.5
2005-01-28 08:50:41 51°20.225 2°44.254 287.7 14.3 278 25.8
2005-01-28 08:50:46 51°20.228 2°44.223 287 14.4 276 26.3
2005-01-28 08:50:50 51°20.23 2°44.199 288.1 14.4 276 26.5
2005-01-28 08:50:56 51°20.233 2°44.16 287.3 14.3 276 26.2
2005-01-28 08:51:01 51°20.236 2°44.131 288.1 14.3 278 26.6
2005-01-28 08:51:06 51°20.24 2°44.099 288.6 14.3 278 26.5
2005-01-28 08:51:11 51°20.241 2°44.066 287.9 14.2 278 26.5
2005-01-28 08:51:16 51°20.244 2°44.037 287.4 14.2 278 26.5
2005-01-28 08:51:20 51°20.247 2°44.009 288 14.2 278 26.5
2005-01-28 08:51:26 51°20.249 2°43.974 288 14.3 278 26.3
2005-01-28 08:51:31 51°20.252 2°43.943 288.1 14.2 278 25.6
2005-01-28 08:51:36 51°20.254 2°43.909 287.4 14.4 277 24.9
2005-01-28 08:51:40 51°20.257 2°43.884 287 14.4 276 26.1
2005-01-28 08:51:46 51°20.259 2°43.851 287.6 14.1 276 26.6
2005-01-28 08:51:51 51°20.262 2°43.822 287.9 14.1 277 26.3
2005-01-28 08:51:56 51°20.264 2°43.788 288.1 14.1 277 26
2005-01-28 08:52:01 51°20.267 2°43.757 288.6 14.1 277 26.3
2005-01-28 08:52:05 51°20.269 2°43.728 287.6 14.3 278 26.2
2005-01-28 08:52:10 51°20.272 2°43.701 287.3 14.2 278 26.4
2005-01-28 08:52:16 51°20.275 2°43.66 287.7 14.2 278 26.4
2005-01-28 08:52:21 51°20.278 2°43.632 288.8 14.1 279 26.4
2005-01-28 08:52:26 51°20.28 2°43.602 288 14.1 279 26.5
2005-01-28 08:52:31 51°20.282 2°43.573 287.9 14.1 279 26.2
2005-01-28 08:52:36 51°20.285 2°43.538 286.8 13.9 277 26.3
2005-01-28 08:52:41 51°20.287 2°43.504 287.5 14.1 277 26.3
2005-01-28 08:52:46 51°20.289 2°43.476 287.5 14.1 276 26.5
2005-01-28 08:52:51 51°20.292 2°43.449 286.5 14.1 279 26.8
2005-01-28 08:52:56 51°20.295 2°43.414 288.5 14.2 275 26.6
2005-01-28 08:53:01 51°20.298 2°43.383 287.4 14.2 275 26.6
2005-01-28 08:53:06 51°20.3 2°43.353 288.5 14.2 279 26.4
2005-01-28 08:53:11 51°20.303 2°43.323 288.1 14.3 278 26.5
2005-01-28 08:53:16 51°20.306 2°43.29 287.9 14.1 279 26.6
2005-01-28 08:53:21 51°20.309 2°43.259 288.4 14.2 277 26.4
2005-01-28 08:53:26 51°20.312 2°43.228 287.6 14.2 279 26.2
2005-01-28 08:53:31 51°20.313 2°43.198 288.5 14.2 277 26.2
2005-01-28 08:53:36 51°20.316 2°43.162 287.3 14.2 277 25.8
2005-01-28 08:53:41 51°20.319 2°43.134 287.9 14.3 278 25.8
2005-01-28 08:53:46 51°20.322 2°43.104 288.1 14.1 278 25.9
2005-01-28 08:53:51 51°20.324 2°43.069 288.4 14.1 278 25.5
2005-01-28 08:53:56 51°20.328 2°43.037 288.2 14.1 278 25.4
2005-01-28 08:54:00 51°20.329 2°43.012 288 13.9 279 25.2
2005-01-28 08:54:06 51°20.332 2°42.98 288 14.1 275 25.3
2005-01-28 08:54:11 51°20.335 2°42.952 288.9 14 280 24.8
2005-01-28 08:54:16 51°20.338 2°42.919 288.9 14 280 24.2
2005-01-28 08:54:21 51°20.341 2°42.888 289.4 13.9 280 23.8
2005-01-28 08:54:26 51°20.344 2°42.859 289 13.9 279 23.9
2005-01-28 08:54:31 51°20.347 2°42.829 289.5 13.8 279 21.7
2005-01-28 08:54:36 51°20.35 2°42.794 289 14.1 279 23.4
2005-01-28 08:54:41 51°20.353 2°42.764 289.2 14.1 279 24.1
2005-01-28 08:54:46 51°20.356 2°42.735 288.8 14.1 279 24.1
2005-01-28 08:54:51 51°20.358 2°42.7 289.2 14 279 24
2005-01-28 08:54:56 51°20.361 2°42.672 289 14 278 23.6
2005-01-28 08:55:00 51°20.364 2°42.644 288.5 14.2 279 20.9
2005-01-28 08:55:06 51°20.367 2°42.612 288.5 14.2 279 22.6
2005-01-28 08:55:11 51°20.369 2°42.581 288.6 14 280 22.6
2005-01-28 08:55:16 51°20.372 2°42.549 288.7 14.1 278 20.4
2005-01-28 08:55:21 51°20.375 2°42.517 288.5 14.1 278 21.7
2005-01-28 08:55:26 51°20.378 2°42.486 288.7 14.1 278 22.2
2005-01-28 08:55:31 51°20.381 2°42.458 288.8 14.2 278 21.7
2005-01-28 08:55:36 51°20.383 2°42.422 288.1 14.4 279 19.9
2005-01-28 08:55:41 51°20.387 2°42.389 288.1 14.4 279 20.2
2005-01-28 08:55:46 51°20.388 2°42.361 287.9 14.4 279 20.9
2005-01-28 08:55:50 51°20.391 2°42.336 287 14.4 276 19.6
2005-01-28 08:55:56 51°20.394 2°42.299 287.5 14.3 277 20.1
2005-01-28 08:56:00 51°20.397 2°42.27 288.3 14.3 279 19.4
2005-01-28 08:56:06 51°20.401 2°42.238 287.7 14.3 279 19.7
2005-01-28 08:56:11 51°20.403 2°42.204 288.1 14.3 279 18.7
2005-01-28 08:56:16 51°20.404 2°42.177 287.8 14 278 14.8
2005-01-28 08:56:21 51°20.406 2°42.144 287 14.1 276 16.2
2005-01-28 08:56:27 51°20.409 2°42.109 287.4 14.1 276 17.7
2005-01-28 08:56:31 51°20.411 2°42.083 288.1 14.2 276 16.8
2005-01-28 08:56:36 51°20.415 2°42.049 288.1 14.3 278 17.4
2005-01-28 08:56:41 51°20.417 2°42.019 289 14.3 278 18.1
2005-01-28 08:56:46 51°20.421 2°41.987 288.2 14.3 278 18.7
2005-01-28 08:56:51 51°20.424 2°41.955 289.5 14.3 281 18.8
2005-01-28 08:56:56 51°20.427 2°41.926 288.7 14.3 281 16.1
2005-01-28 08:57:01 51°20.43 2°41.893 288.5 14.2 280 17.9
2005-01-28 08:57:06 51°20.433 2°41.863 288.1 14.2 280 19.5
2005-01-28 08:57:10 51°20.435 2°41.839 287.4 14.4 278 18.3
2005-01-28 08:57:16 51°20.438 2°41.799 288 14.1 278 19.3
2005-01-28 08:57:21 51°20.441 2°41.769 287.5 14.1 278 20.1
2005-01-28 08:57:26 51°20.444 2°41.737 287.9 14.1 278 20
2005-01-28 08:57:31 51°20.449 2°41.706 287.7 14.1 278 20.5
2005-01-28 08:57:36 51°20.451 2°41.672 288.9 14.5 277 20.9
2005-01-28 08:57:40 51°20.454 2°41.647 288.8 14.2 280 20.2
2005-01-28 08:57:45 51°20.456 2°41.616 288.8 14.3 277 20.9
2005-01-28 08:57:51 51°20.459 2°41.582 288.2 14.3 277 21.4
2005-01-28 08:57:56 51°20.463 2°41.55 287.5 14.3 277 20.6
2005-01-28 08:58:01 51°20.465 2°41.521 287.9 14.2 280 20.1
2005-01-28 08:58:06 51°20.468 2°41.488 287.9 14.2 280 19.3
2005-01-28 08:58:11 51°20.472 2°41.454 289.1 14.2 281 20.1
2005-01-28 08:58:16 51°20.475 2°41.426 289.5 14.2 278 20.9
2005-01-28 08:58:21 51°20.479 2°41.397 289.3 14.2 278 21.1
2005-01-28 08:58:26 51°20.481 2°41.362 289.1 14.2 278 20.8
2005-01-28 08:58:31 51°20.483 2°41.33 289.1 14.2 278 21.5
2005-01-28 08:58:36 51°20.487 2°41.302 287 14.2 279 21.5
2005-01-28 08:58:41 51°20.49 2°41.27 287.7 14.3 279 22.4
2005-01-28 08:58:45 51°20.492 2°41.246 288.2 14.2 278 24.2
2005-01-28 08:58:51 51°20.494 2°41.211 288.1 14.2 276 24.7
2005-01-28 08:58:56 51°20.497 2°41.176 288.1 14.1 279 25.6
2005-01-28 08:59:01 51°20.5 2°41.148 287.2 14.2 276 26.6
2005-01-28 08:59:06 51°20.503 2°41.117 286.6 14 277 27.3
2005-01-28 08:59:11 51°20.505 2°41.087 288.1 14 277 27.5
2005-01-28 08:59:16 51°20.508 2°41.051 288.3 14 277 27.5
2005-01-28 08:59:21 51°20.511 2°41.021 288.1 14 277 27.6
2005-01-28 08:59:26 51°20.514 2°40.992 287.5 14.3 277 28
2005-01-28 08:59:31 51°20.516 2°40.956 288.1 14.3 277 28.1
2005-01-28 08:59:36 51°20.518 2°40.929 287.9 14.4 278 27.9
2005-01-28 08:59:40 51°20.52 2°40.9 287.9 14.1 277 26.9
2005-01-28 08:59:46 51°20.523 2°40.864 287.9 14.1 277 26.6
2005-01-28 08:59:51 51°20.526 2°40.835 287 14.1 276 27.2
2005-01-28 08:59:56 51°20.528 2°40.803 287.4 14.2 277 27.2
2005-01-28 09:00:01 51°20.53 2°40.771 287.4 14.2 279 27.4
2005-01-28 09:00:06 51°20.533 2°40.741 288.2 14.2 279 27.5
2005-01-28 09:00:11 51°20.536 2°40.712 287.5 14.2 279 27.7
2005-01-28 09:00:16 51°20.539 2°40.679 288.4 14.2 279 27.6
2005-01-28 09:00:21 51°20.542 2°40.647 289.5 14.2 279 27.6
2005-01-28 09:00:25 51°20.544 2°40.62 288.3 14.2 279 27.7
2005-01-28 09:00:31 51°20.546 2°40.583 289 14.4 279 27.3
2005-01-28 09:00:36 51°20.55 2°40.554 288.1 14.2 278 27.3
2005-01-28 09:00:40 51°20.553 2°40.525 288.2 14.2 278 26.9
2005-01-28 09:00:46 51°20.556 2°40.49 288.3 14.2 278 27.1
2005-01-28 09:00:51 51°20.559 2°40.459 288.6 14.3 279 27.1
2005-01-28 09:00:56 51°20.562 2°40.428 289.7 14.3 279 27.2
2005-01-28 09:01:01 51°20.565 2°40.397 288.4 14.3 279 27.1
2005-01-28 09:01:06 51°20.568 2°40.366 289.5 14.3 279 27.1
2005-01-28 09:01:11 51°20.571 2°40.334 289 14.3 279 27.1
2005-01-28 09:01:16 51°20.574 2°40.3 288.4 14.3 279 27.4
2005-01-28 09:01:21 51°20.576 2°40.272 288.8 14.3 279 27.2
2005-01-28 09:01:26 51°20.579 2°40.242 287.8 14.2 277 27.4
2005-01-28 09:01:30 51°20.58 2°40.216 288.8 14.2 279 26.6
2005-01-28 09:01:36 51°20.584 2°40.175 288.3 14.2 279 27.1
2005-01-28 09:01:41 51°20.586 2°40.147 287.5 14.2 279 27
2005-01-28 09:01:46 51°20.589 2°40.114 287.7 14.2 278 26.7
2005-01-28 09:01:51 51°20.593 2°40.089 288.8 14.2 278 27
2005-01-28 09:01:56 51°20.596 2°40.052 288.8 14.2 278 26.6
2005-01-28 09:02:00 51°20.598 2°40.027 287.9 14.1 279 26.5
2005-01-28 09:02:06 51°20.601 2°39.992 289.1 14.1 278 26.5
2005-01-28 09:02:11 51°20.604 2°39.964 288.7 14.1 278 26.3
2005-01-28 09:02:16 51°20.606 2°39.93 288.5 14.2 278 25.8
2005-01-28 09:02:21 51°20.608 2°39.899 287.9 14.2 278 25.2
2005-01-28 09:02:26 51°20.612 2°39.866 288.7 14.2 278 25.2
2005-01-28 09:02:31 51°20.613 2°39.837 288.3 14.2 278 25.6
2005-01-28 09:02:36 51°20.616 2°39.805 288.6 14.2 278 25.3
2005-01-28 09:02:41 51°20.619 2°39.773 287.3 14.4 278 25.3
2005-01-28 09:02:46 51°20.622 2°39.742 288.2 14.1 280 25.5
2005-01-28 09:02:51 51°20.626 2°39.711 288.8 14.1 280 25.6
2005-01-28 09:02:56 51°20.629 2°39.68 288.8 14.1 280 25.7
2005-01-28 09:03:01 51°20.631 2°39.65 288.8 14.1 278 25.8
2005-01-28 09:03:06 51°20.634 2°39.619 288.8 14.1 278 25.6
2005-01-28 09:03:11 51°20.637 2°39.585 288.5 14 279 25.3
2005-01-28 09:03:16 51°20.639 2°39.557 288.4 14.1 278 25.6
2005-01-28 09:03:21 51°20.641 2°39.525 288.1 14 277 25.4
2005-01-28 09:03:26 51°20.645 2°39.494 287.5 14.2 277 25.6
2005-01-28 09:03:31 51°20.647 2°39.462 288.3 14.2 277 25.5
2005-01-28 09:03:36 51°20.649 2°39.43 288.2 14.2 278 25.4
2005-01-28 09:03:40 51°20.652 2°39.405 287.6 14.1 278 25.2
2005-01-28 09:03:46 51°20.655 2°39.37 288.5 14 278 25.1
2005-01-28 09:03:50 51°20.656 2°39.345 288.7 14.2 276 24.9
2005-01-28 09:03:56 51°20.66 2°39.306 288.1 14.5 276 24.7
2005-01-28 09:04:01 51°20.662 2°39.278 287.6 14 276 24.9
2005-01-28 09:04:06 51°20.664 2°39.246 287.4 13.9 276 24.8
2005-01-28 09:04:11 51°20.666 2°39.216 287.7 13.9 276 24.6
2005-01-28 09:04:16 51°20.667 2°39.182 286.7 13.9 276 25
2005-01-28 09:04:21 51°20.669 2°39.153 287.4 13.9 274 24.5
2005-01-28 09:04:26 51°20.67 2°39.123 287.3 13.9 276 24.5
2005-01-28 09:04:31 51°20.674 2°39.093 286.6 14 275 25
2005-01-28 09:04:36 51°20.677 2°39.06 288.2 14 275 25
2005-01-28 09:04:41 51°20.679 2°39.032 288.8 14.1 276 25.2
2005-01-28 09:04:46 51°20.682 2°38.999 288.8 14.1 276 25.2
2005-01-28 09:04:51 51°20.684 2°38.971 288.9 14.2 276 25.3
2005-01-28 09:04:56 51°20.687 2°38.939 289.6 14.1 280 25
2005-01-28 09:05:00 51°20.69 2°38.91 288.1 13.9 279 24.7
2005-01-28 09:05:06 51°20.692 2°38.876 288.6 14.1 279 24.7
2005-01-28 09:05:11 51°20.696 2°38.844 288.3 14.1 277 24.5
2005-01-28 09:05:16 51°20.698 2°38.811 288.5 14.1 277 24.6
2005-01-28 09:05:21 51°20.701 2°38.783 288.5 14.1 277 24.4
2005-01-28 09:05:26 51°20.703 2°38.752 288.8 14.1 279 24.3
2005-01-28 09:05:31 51°20.706 2°38.722 288.8 14.2 277 23.3
2005-01-28 09:05:36 51°20.709 2°38.689 288.4 14.2 278 23.6
2005-01-28 09:05:40 51°20.712 2°38.661 288.1 14.2 278 24.8
2005-01-28 09:05:46 51°20.716 2°38.627 288.5 14.2 278 24.5
2005-01-28 09:05:51 51°20.718 2°38.595 289.1 14.2 280 24.1
2005-01-28 09:05:56 51°20.72 2°38.565 289.3 14.2 278 23.3
2005-01-28 09:06:01 51°20.722 2°38.535 289.2 14.1 277 23.7
2005-01-28 09:06:06 51°20.725 2°38.501 288.8 14 276 23.9
2005-01-28 09:06:11 51°20.729 2°38.471 287 14.1 277 23.6
2005-01-28 09:06:16 51°20.73 2°38.441 288.5 14.1 278 23.6
2005-01-28 09:06:20 51°20.733 2°38.412 288.3 13.7 279 23.3
2005-01-28 09:06:26 51°20.736 2°38.38 288.2 13.9 278 23.9
2005-01-28 09:06:31 51°20.738 2°38.348 287.7 13.8 277 23.5
2005-01-28 09:06:36 51°20.741 2°38.316 288.1 13.8 277 23
2005-01-28 09:06:41 51°20.743 2°38.287 288.3 13.8 277 23.7
2005-01-28 09:06:46 51°20.746 2°38.256 287.4 13.8 277 23.5
2005-01-28 09:06:51 51°20.749 2°38.222 288.7 13.8 277 24
2005-01-28 09:06:56 51°20.752 2°38.191 288.2 14.1 278 23.7
2005-01-28 09:07:01 51°20.754 2°38.163 288.2 14.1 278 22.9
2005-01-28 09:07:06 51°20.757 2°38.13 287.7 14.2 276 22.5
2005-01-28 09:07:11 51°20.759 2°38.1 288 14 279 23.9
2005-01-28 09:07:16 51°20.762 2°38.072 287.6 14 277 23.6
2005-01-28 09:07:21 51°20.764 2°38.039 288.7 13.9 278 23
2005-01-28 09:07:26 51°20.768 2°38.009 288.8 13.9 278 23.5
2005-01-28 09:07:30 51°20.769 2°37.983 289.1 14.2 277 23.7
2005-01-28 09:07:36 51°20.774 2°37.946 288.6 14.1 278 23.7
2005-01-28 09:07:40 51°20.776 2°37.918 289.5 14.1 277 23.9
2005-01-28 09:07:46 51°20.779 2°37.885 288.5 14.1 277 23.3
2005-01-28 09:07:51 51°20.783 2°37.854 288.4 14.1 277 22.4
2005-01-28 09:07:56 51°20.785 2°37.823 289.2 14.4 278 24.1